Latest Weather Observations for Cape Moreton

IDQ60801

Issued at 10:02 am EST Saturday 13 February 2016 (issued every 30 minutes, with the page automatically refreshed every 10 minutes)

About weather observations | Map of weather stations | Latest weather observations for QLD | Other Formats
Station Details ID: 040043 Name: CAPE MORETON LIGHTHOUSE Lat: -27.03 Lon: 153.47 Height: 99.9 m
Data from the previous 72 hours. | See also: Recent months at Cape Moreton
Date/Time
EST
Temp
°C
App
Temp
°C
Dew
Point
Rel
Hum
%
Delta-T
°C
Wind Press
QNH
hPa
Press
MSL
hPa
Rain
since 9 am
mm
Dir
 
Spd
km/h
Gust
km/h
Spd
kts
Gust
kts
13/10:00am 22.0 14.0 21.2 95 0.5 SE 65 74 35 40 1009.7 1009.2 0.4
13/09:30am 25.2 19.7 22.1 83 2.1 SE 54 61 29 33 1010.1 1009.6 0.0
13/09:00am 24.3 19.2 21.4 84 1.9 SE 50 61 27 33 1010.2 1009.7 0.4
13/08:30am 24.3 18.3 21.8 86 1.7 SE 56 67 30 36 1010.2 1009.7 0.4
13/08:00am 23.9 17.6 21.6 87 1.5 SE 57 67 31 36 1010.0 1009.5 0.4
13/07:32am 23.6 16.9 20.5 83 2.0 SE 56 80 30 43 1009.5 1009.0 0.0
13/07:30am 24.4 18.0 20.3 78 2.7 SE 54 65 29 35 1010.0 1009.5 0.0
13/07:00am 24.2 16.5 20.3 79 2.5 SE 61 70 33 38 1009.7 1009.2 0.0
13/06:46am 24.3 17.5 20.6 80 2.4 SE 57 76 31 41 1009.5 1009.0 0.0
13/06:30am 24.8 17.2 20.5 77 2.8 SE 61 72 33 39 1009.6 1009.1 0.0
13/06:00am 24.1 16.5 19.8 77 2.8 SE 59 70 32 38 1008.9 1008.4 0.0
13/05:30am 24.1 16.7 20.2 79 2.5 SE 59 70 32 38 1008.8 1008.3 0.0
13/05:00am 24.0 16.0 19.7 77 2.8 SE 61 76 33 41 1008.6 1008.1 0.0
13/04:30am 24.0 15.8 19.3 75 3.0 SE 61 70 33 38 1008.4 1007.9 0.0
13/04:00am 23.9 15.9 19.0 74 3.1 SE 59 69 32 37 1008.7 1008.2 0.0
13/03:30am 23.7 16.1 19.0 75 3.0 SE 57 70 31 38 1008.8 1008.3 0.0
13/03:00am 23.9 17.5 19.6 77 2.8 SE 52 65 28 35 1009.4 1008.9 0.0
13/02:30am 23.9 16.6 19.2 75 3.0 SE 56 67 30 36 1009.5 1009.0 0.0
13/02:00am 23.8 17.3 20.1 80 2.4 SE 54 63 29 34 1009.8 1009.3 0.0
13/01:30am 24.0 17.5 19.3 75 3.0 SE 52 61 28 33 1009.9 1009.4 0.0
13/01:00am 24.0 17.9 19.3 75 3.0 SE 50 57 27 31 1010.2 1009.7 0.0
13/12:30am 24.0 17.6 19.5 76 2.9 SE 52 63 28 34 1010.5 1010.0 0.0
13/12:00am 23.9 17.7 19.0 74 3.1 SE 50 61 27 33 1010.8 1010.3 0.0
 
Date/Time
EST
Temp
°C
App
Temp
°C
Dew
Point
Rel
Hum
%
Delta-T
°C
Wind Press
QNH
hPa
Press
MSL
hPa
Rain
since 9 am
mm
Dir
 
Spd
km/h
Gust
km/h
Spd
kts
Gust
kts
12/11:30pm 24.0 17.5 19.3 75 3.0 SE 52 61 28 33 1011.0 1010.5 0.0
12/11:00pm 24.1 18.0 19.4 75 3.0 SE 50 61 27 33 1011.5 1011.0 0.0
12/10:30pm 24.2 17.8 19.5 75 3.0 SE 52 63 28 34 1011.5 1011.0 0.0
12/10:00pm 24.1 16.8 19.2 74 3.1 SE 56 63 30 34 1012.0 1011.5 0.0
12/09:30pm 24.2 17.3 19.3 74 3.1 SE 54 61 29 33 1011.9 1011.4 0.0
12/09:00pm 24.4 18.4 20.3 78 2.7 SE 52 61 28 33 1012.0 1011.5 0.0
12/08:30pm 24.4 17.5 19.2 73 3.3 SE 54 63 29 34 1011.9 1011.4 0.0
12/08:00pm 24.3 17.5 19.4 74 3.2 SE 54 65 29 35 1011.9 1011.4 0.0
12/07:30pm 24.6 18.7 20.5 78 2.7 SE 52 65 28 35 1011.8 1011.3 0.0
12/07:00pm 24.4 17.1 19.5 74 3.2 SE 57 67 31 36 1011.6 1011.1 0.0
12/06:30pm 24.4 18.0 20.3 78 2.7 SE 54 65 29 35 1011.6 1011.1 0.0
12/06:00pm 24.7 18.2 20.0 75 3.1 SE 54 65 29 35 1011.2 1010.7 0.0
12/05:30pm 24.6 17.8 19.4 73 3.3 SE 54 61 29 33 1011.2 1010.7 0.0
12/05:00pm 25.0 19.7 19.4 71 3.6 SE 46 57 25 31 1011.3 1010.8 0.0
12/04:30pm 25.2 19.1 18.4 66 4.3 SE 48 57 26 31 1011.3 1010.8 0.0
12/04:00pm 25.7 20.5 18.9 66 4.4 SE 44 56 24 30 1011.2 1010.7 0.0
12/03:30pm 25.5 19.1 18.7 66 4.3 SE 50 59 27 32 1011.0 1010.5 0.0
12/03:00pm 25.8 20.0 19.2 67 4.3 SE 48 57 26 31 1011.2 1010.7 0.0
12/02:30pm 25.8 19.1 18.0 62 4.9 SE 50 57 27 31 1011.3 1010.8 0.0
12/02:00pm 26.0 20.8 18.9 65 4.6 SE 44 56 24 30 1011.4 1010.9 0.0
12/01:30pm 26.3 20.4 18.9 63 4.8 SE 48 56 26 30 1011.5 1011.0 0.0
12/01:00pm 26.4 20.3 19.3 65 4.6 SE 50 59 27 32 1011.6 1011.1 0.0
12/12:30pm 26.1 19.6 19.2 65 4.5 SE 52 61 28 33 1011.6 1011.1 0.0
12/12:00pm 26.5 20.1 18.6 62 5.1 SE 50 61 27 33 1011.7 1011.2 0.0
12/11:30am 26.4 20.9 19.8 67 4.3 SE 48 59 26 32 1012.2 1011.7 0.0
12/11:00am 26.1 20.3 20.0 69 4.0 SE 50 57 27 31 1012.1 1011.6 0.0
12/10:30am 26.7 21.3 20.1 67 4.3 ESE 48 57 26 31 1012.4 1011.9 0.0
12/10:00am 26.4 20.5 19.8 67 4.3 SE 50 57 27 31 1012.3 1011.8 0.0
12/09:30am 26.5 21.2 20.3 68 4.1 SE 48 57 26 31 1012.4 1011.9 0.0
12/09:00am 25.5 20.6 20.3 73 3.4 SE 46 54 25 29 1012.4 1011.9 0.0
12/08:30am 25.9 20.5 20.0 70 3.8 SE 48 56 26 30 1012.3 1011.8 0.0
12/08:00am 25.6 20.8 19.7 70 3.8 SE 44 52 24 28 1012.5 1012.0 0.0
12/07:30am 25.4 19.8 18.8 67 4.2 SE 46 54 25 29 1012.3 1011.8 0.0
12/07:00am 25.2 20.7 19.8 72 3.5 SE 43 50 23 27 1012.2 1011.7 0.0
12/06:30am 24.6 19.6 19.2 72 3.5 SE 44 52 24 28 1012.1 1011.6 0.0
12/06:00am 24.1 19.4 19.8 77 2.8 SE 44 54 24 29 1012.1 1011.6 0.0
12/05:30am 23.9 19.6 19.6 77 2.8 SE 41 50 22 27 1011.8 1011.3 0.0
12/05:00am 23.7 18.8 19.0 75 3.0 SE 43 52 23 28 1011.5 1011.0 0.0
12/04:30am 23.7 19.4 19.6 78 2.6 SE 41 48 22 26 1011.3 1010.8 0.0
12/04:00am 23.9 19.7 19.8 78 2.7 SE 41 46 22 25 1011.3 1010.8 0.0
12/03:30am 24.0 20.5 20.5 81 2.3 SE 39 46 21 25 1011.4 1010.9 0.0
12/03:00am 23.9 20.3 20.2 80 2.4 ESE 39 46 21 25 1011.5 1011.0 0.0
12/02:30am 23.9 19.6 19.6 77 2.8 ESE 41 46 22 25 1011.6 1011.1 0.0
12/02:00am 23.8 19.5 19.5 77 2.8 SE 41 46 22 25 1011.7 1011.2 0.0
12/01:30am 24.0 19.8 19.7 77 2.8 ESE 41 48 22 26 1011.7 1011.2 0.0
12/01:00am 24.1 20.5 20.2 79 2.5 SE 39 46 21 25 1011.9 1011.4 0.0
12/12:30am 24.1 19.8 19.6 76 2.9 SE 41 46 22 25 1012.1 1011.6 0.0
12/12:00am 24.0 20.1 19.5 76 2.9 SE 39 50 21 27 1012.2 1011.7 0.0
 
Date/Time
EST
Temp
°C
App
Temp
°C
Dew
Point
Rel
Hum
%
Delta-T
°C
Wind Press
QNH
hPa
Press
MSL
hPa
Rain
since 9 am
mm
Dir
 
Spd
km/h
Gust
km/h
Spd
kts
Gust
kts
11/11:30pm 23.9 19.5 19.2 75 3.0 SE 41 48 22 26 1012.2 1011.7 0.0
11/11:00pm 24.0 19.4 19.7 77 2.8 ESE 43 50 23 27 1012.5 1012.0 0.0
11/10:30pm 24.0 19.9 19.9 78 2.7 ESE 41 50 22 27 1012.7 1012.1 0.0
11/10:00pm 24.0 19.7 19.5 76 2.9 ESE 41 46 22 25 1012.8 1012.2 0.0
11/09:30pm 24.0 19.4 19.7 77 2.8 ESE 43 50 23 27 1012.9 1012.3 0.0
11/09:00pm 24.1 19.5 20.0 78 2.7 ESE 44 52 24 28 1012.9 1012.3 0.0
11/08:30pm 24.1 19.4 19.8 77 2.8 ESE 44 54 24 29 1012.9 1012.3 0.0
11/08:00pm 24.1 19.3 19.6 76 2.9 ESE 44 54 24 29 1012.7 1012.1 0.0
11/07:30pm 24.2 19.4 19.7 76 2.9 ESE 44 54 24 29 1012.4 1011.9 0.0
11/07:00pm 24.3 19.4 19.4 74 3.2 ESE 44 52 24 28 1012.2 1011.7 0.0
11/06:30pm 24.4 19.6 19.7 75 3.0 ESE 44 54 24 29 1011.9 1011.4 0.0
11/06:00pm 24.7 20.1 20.0 75 3.1 ESE 44 52 24 28 1011.6 1011.1 0.0
11/05:30pm 25.0 20.0 20.0 74 3.3 ESE 46 52 25 28 1011.3 1010.8 0.0
11/05:00pm 25.2 20.3 20.2 74 3.3 ESE 46 56 25 30 1011.0 1010.5 0.0
11/04:30pm 25.1 18.9 19.2 70 3.8 ESE 50 59 27 32 1010.8 1010.3 0.0
11/04:00pm 25.2 19.8 19.1 69 3.9 SE 46 54 25 29 1010.8 1010.3 0.0
11/03:30pm 25.3 20.3 20.1 73 3.4 SE 46 54 25 29 1010.8 1010.3 0.0
11/03:00pm 26.0 21.3 20.6 72 3.6 SE 46 54 25 29 1010.9 1010.4 0.0
11/02:30pm 25.9 21.1 20.5 72 3.5 SE 46 54 25 29 1011.2 1010.7 0.0
11/02:00pm 25.3 22.6 20.5 75 3.2 SE 35 48 19 26 1011.3 1010.8 0.0
11/01:58pm 25.6 23.0 20.6 74 3.3 SE 35 43 19 23 1011.4 1010.9 0.0
11/01:30pm 24.8 23.5 20.7 78 2.7 SSE 28 35 15 19 1011.9 1011.4 0.0
11/01:00pm 24.0 21.0 19.9 78 2.7 SE 35 44 19 24 1012.1 1011.6 0.0
11/12:30pm 24.3 19.5 20.4 79 2.5 SE 46 54 25 29 1012.1 1011.6 0.0
11/12:00pm 23.4 17.2 20.7 85 1.8 ESE 54 61 29 33 1012.3 1011.8 0.0
11/11:30am 23.6 18.5 20.7 84 1.9 ESE 48 59 26 32 1012.5 1012.0 0.0
11/11:00am 26.9 22.6 20.7 69 4.1 SE 44 52 24 28 1012.4 1011.9 0.0
11/10:30am 26.4 22.2 20.5 70 3.9 SE 43 50 23 27 1012.5 1012.0 0.0
11/10:00am 26.5 22.4 19.9 67 4.3 SE 41 48 22 26 1012.5 1012.0 0.0
11/09:30am 26.3 21.8 20.2 69 4.0 SE 44 54 24 29 1012.4 1011.9 0.0
11/09:00am 26.4 22.3 20.7 71 3.8 SE 43 48 23 26 1012.4 1011.9 0.0
11/08:30am 26.5 23.5 21.3 73 3.5 SE 39 48 21 26 1012.4 1011.9 0.0
11/08:00am 25.8 21.2 19.7 69 4.0 SE 43 48 23 26 1012.4 1011.9 0.0
11/07:30am 24.6 20.8 19.7 74 3.2 SE 39 46 21 25 1012.2 1011.7 0.0
11/07:00am 24.9 20.3 19.7 73 3.4 SE 43 50 23 27 1011.9 1011.4 0.0
11/06:30am 24.5 19.9 19.6 74 3.2 SE 43 50 23 27 1011.6 1011.1 0.0
11/06:00am 24.0 20.2 19.7 77 2.8 SE 39 46 21 25 1011.6 1011.1 0.0
11/05:30am 23.7 20.6 19.6 78 2.6 SE 35 43 19 23 1011.4 1010.9 0.0
11/05:00am 23.6 19.8 18.9 75 3.0 SE 37 43 20 23 1011.4 1010.9 0.0
11/04:30am 23.6 20.0 19.3 77 2.8 SE 37 44 20 24 1011.1 1010.6 0.0
11/04:00am 23.7 20.7 19.8 79 2.5 SE 35 41 19 22 1011.0 1010.5 0.0
11/03:30am 23.5 19.4 19.2 77 2.8 SE 39 44 21 24 1010.8 1010.3 0.0
11/03:00am 23.5 19.3 19.0 76 2.9 SE 39 46 21 25 1010.8 1010.3 0.0
11/02:30am 23.5 18.8 17.7 70 3.6 SE 39 48 21 26 1010.8 1010.3 0.0
11/02:00am 23.5 19.4 19.2 77 2.8 ESE 39 44 21 24 1011.1 1010.6 0.0
11/01:30am 23.8 20.8 19.9 79 2.5 ESE 35 41 19 22 1011.6 1011.1 0.0
11/01:00am 23.7 19.6 19.2 76 2.9 ESE 39 48 21 26 1011.8 1011.3 0.0
11/12:30am 23.7 19.3 19.2 76 2.9 ESE 41 46 22 25 1012.0 1011.5 0.0
11/12:00am 23.9 19.1 19.2 75 3.0 ESE 43 50 23 27 1012.3 1011.8 0.0
 
Date/Time
EST
Temp
°C
App
Temp
°C
Dew
Point
Rel
Hum
%
Delta-T
°C
Wind Press
QNH
hPa
Press
MSL
hPa
Rain
since 9 am
mm
Dir
 
Spd
km/h
Gust
km/h
Spd
kts
Gust
kts
10/11:30pm 23.9 19.5 19.4 76 2.9 ESE 41 46 22 25 1012.8 1012.2 0.0
10/11:00pm 23.9 19.3 19.6 77 2.8 ESE 43 50 23 27 1012.9 1012.3 0.0
10/10:30pm 23.9 18.9 19.2 75 3.0 ESE 44 52 24 28 1012.9 1012.3 0.0
10/10:00pm 24.0 19.1 19.5 76 2.9 ESE 44 52 24 28 1013.1 1012.5 0.0
10/09:30pm 24.2 19.8 20.1 78 2.7 ESE 43 50 23 27 1013.2 1012.6 0.0
10/09:00pm 24.2 19.8 20.1 78 2.7 ESE 43 50 23 27 1013.1 1012.5 0.0
10/08:30pm 24.3 20.2 20.0 77 2.8 ESE 41 50 22 27 1013.1 1012.5 0.0
10/08:00pm 24.3 19.8 20.2 78 2.7 ESE 44 54 24 29 1012.9 1012.3 0.0
10/07:30pm 24.3 19.9 20.2 78 2.7 SE 43 54 23 29 1012.5 1012.0 0.0
10/07:00pm 24.1 20.2 20.4 80 2.4 SE 41 48 22 26 1012.7 1012.1 0.0
10/06:30pm 24.4 20.3 19.9 76 2.9 ESE 41 46 22 25 1012.4 1011.9 0.0
10/06:00pm 24.4 20.9 19.5 74 3.2 ESE 37 46 20 25 1012.0 1011.5 0.0
10/05:30pm 24.4 20.8 20.1 77 2.8 SE 39 46 21 25 1011.7 1011.2 0.0
10/05:00pm 24.8 20.8 20.1 75 3.1 SE 41 48 22 26 1011.6 1011.1 0.0
10/04:30pm 25.2 21.4 19.8 72 3.5 ESE 39 50 21 27 1011.3 1010.8 0.0
10/04:00pm 25.1 21.2 19.5 71 3.6 SE 39 46 21 25 1011.1 1010.6 0.0
10/03:30pm 25.3 20.2 18.7 67 4.2 SE 43 48 23 26 1011.1 1010.6 0.0
10/03:00pm 25.3 20.7 19.7 71 3.6 ESE 43 52 23 28 1011.3 1010.8 0.0
10/02:30pm 25.3 20.2 19.9 72 3.5 ESE 46 56 25 30 1011.5 1011.0 0.0
10/02:00pm 24.8 20.1 20.7 78 2.7 ESE 46 54 25 29 1011.7 1011.2 0.0
10/01:30pm 24.7 21.0 20.8 79 2.6 SE 41 54 22 29 1012.0 1011.5 0.0
10/01:00pm 25.9 22.3 20.9 74 3.3 SE 41 48 22 26 1012.3 1011.8 0.0
10/12:30pm 25.5 20.5 19.2 68 4.1 SE 44 54 24 29 1012.2 1011.7 0.0
10/12:00pm 25.0 18.8 20.0 74 3.3 ESE 52 61 28 33 1012.1 1011.6 0.0
10/11:30am 24.5 19.6 22.4 88 1.4 ESE 52 61 28 33 1012.4 1011.9 0.0
10/11:00am 26.8 21.6 18.4 60 5.4 SE 43 52 23 28 1012.7 1012.1 0.0
10/10:30am 24.9 20.9 20.2 75 3.1 SSE 41 54 22 29 1012.9 1012.3 0.0

Other Formats:

Comma delimited format used in spreadsheet applications
http://www.bom.gov.au/fwo/IDQ60801/IDQ60801.94594.axf

JavaScript Object Notation format (JSON) in row-major order
http://www.bom.gov.au/fwo/IDQ60801/IDQ60801.94594.json